sensor_id;sensor_type;location;lat;lon;timestamp;P1;durP1;ratioP1;P2;durP2;ratioP2
25627;SDS011;40915;50.826;4.356;2024-01-30T00:01:39;6.88;;;3.75;;
25627;SDS011;40915;50.826;4.356;2024-01-30T00:04:04;7.40;;;4.35;;
25627;SDS011;40915;50.826;4.356;2024-01-30T00:06:30;5.32;;;3.70;;
25627;SDS011;40915;50.826;4.356;2024-01-30T00:08:56;5.05;;;3.63;;
25627;SDS011;40915;50.826;4.356;2024-01-30T00:11:22;7.80;;;4.20;;
25627;SDS011;40915;50.826;4.356;2024-01-30T00:13:50;6.35;;;4.30;;
25627;SDS011;40915;50.826;4.356;2024-01-30T00:16:20;7.72;;;4.20;;
25627;SDS011;40915;50.826;4.356;2024-01-30T00:18:46;8.77;;;4.32;;
25627;SDS011;40915;50.826;4.356;2024-01-30T00:21:12;6.05;;;3.83;;
25627;SDS011;40915;50.826;4.356;2024-01-30T00:23:38;6.53;;;4.07;;
25627;SDS011;40915;50.826;4.356;2024-01-30T00:26:03;7.90;;;4.20;;
25627;SDS011;40915;50.826;4.356;2024-01-30T00:28:30;6.40;;;4.10;;
25627;SDS011;40915;50.826;4.356;2024-01-30T00:30:56;6.68;;;4.20;;
25627;SDS011;40915;50.826;4.356;2024-01-30T00:33:21;5.78;;;3.50;;
25627;SDS011;40915;50.826;4.356;2024-01-30T00:35:47;6.53;;;4.20;;
25627;SDS011;40915;50.826;4.356;2024-01-30T00:38:13;5.65;;;3.63;;
25627;SDS011;40915;50.826;4.356;2024-01-30T00:40:38;5.72;;;3.92;;
25627;SDS011;40915;50.826;4.356;2024-01-30T00:43:04;5.45;;;4.00;;
25627;SDS011;40915;50.826;4.356;2024-01-30T00:45:30;7.88;;;3.72;;
25627;SDS011;40915;50.826;4.356;2024-01-30T00:47:56;6.68;;;4.03;;
25627;SDS011;40915;50.826;4.356;2024-01-30T00:50:22;4.53;;;3.13;;
25627;SDS011;40915;50.826;4.356;2024-01-30T00:52:47;6.50;;;3.92;;
25627;SDS011;40915;50.826;4.356;2024-01-30T00:55:13;5.22;;;3.63;;
25627;SDS011;40915;50.826;4.356;2024-01-30T00:57:39;5.25;;;3.53;;
25627;SDS011;40915;50.826;4.356;2024-01-30T01:00:05;6.30;;;4.00;;
25627;SDS011;40915;50.826;4.356;2024-01-30T01:02:34;5.70;;;3.50;;
25627;SDS011;40915;50.826;4.356;2024-01-30T01:05:00;5.20;;;3.50;;
25627;SDS011;40915;50.826;4.356;2024-01-30T01:07:26;5.55;;;3.60;;
25627;SDS011;40915;50.826;4.356;2024-01-30T01:09:52;6.60;;;4.07;;
25627;SDS011;40915;50.826;4.356;2024-01-30T01:12:17;8.48;;;3.92;;
25627;SDS011;40915;50.826;4.356;2024-01-30T01:14:43;8.13;;;3.72;;
25627;SDS011;40915;50.826;4.356;2024-01-30T01:17:09;7.70;;;3.78;;
25627;SDS011;40915;50.826;4.356;2024-01-30T01:19:34;6.18;;;3.63;;
25627;SDS011;40915;50.826;4.356;2024-01-30T01:22:00;6.20;;;3.63;;
25627;SDS011;40915;50.826;4.356;2024-01-30T01:24:25;5.35;;;3.65;;
25627;SDS011;40915;50.826;4.356;2024-01-30T01:26:51;5.65;;;3.83;;
25627;SDS011;40915;50.826;4.356;2024-01-30T01:29:17;6.65;;;3.95;;
25627;SDS011;40915;50.826;4.356;2024-01-30T01:31:42;7.18;;;3.42;;
25627;SDS011;40915;50.826;4.356;2024-01-30T01:34:09;6.40;;;3.92;;
25627;SDS011;40915;50.826;4.356;2024-01-30T01:36:35;6.68;;;3.80;;
25627;SDS011;40915;50.826;4.356;2024-01-30T01:39:01;6.05;;;3.95;;
25627;SDS011;40915;50.826;4.356;2024-01-30T01:41:33;10.15;;;4.15;;
25627;SDS011;40915;50.826;4.356;2024-01-30T01:43:59;8.27;;;3.80;;
25627;SDS011;40915;50.826;4.356;2024-01-30T01:46:28;8.27;;;4.03;;
25627;SDS011;40915;50.826;4.356;2024-01-30T01:48:56;5.90;;;3.67;;
25627;SDS011;40915;50.826;4.356;2024-01-30T01:51:23;4.63;;;3.28;;
25627;SDS011;40915;50.826;4.356;2024-01-30T01:53:52;6.80;;;4.05;;
25627;SDS011;40915;50.826;4.356;2024-01-30T01:56:22;10.35;;;4.18;;
25627;SDS011;40915;50.826;4.356;2024-01-30T01:58:48;8.98;;;4.03;;
25627;SDS011;40915;50.826;4.356;2024-01-30T02:01:16;12.52;;;4.45;;
25627;SDS011;40915;50.826;4.356;2024-01-30T02:03:45;5.40;;;3.50;;
25627;SDS011;40915;50.826;4.356;2024-01-30T02:06:11;8.00;;;4.00;;
25627;SDS011;40915;50.826;4.356;2024-01-30T02:08:41;5.78;;;3.20;;
25627;SDS011;40915;50.826;4.356;2024-01-30T02:11:07;8.32;;;4.15;;
25627;SDS011;40915;50.826;4.356;2024-01-30T02:13:33;8.77;;;3.85;;
25627;SDS011;40915;50.826;4.356;2024-01-30T02:15:59;5.40;;;3.55;;
25627;SDS011;40915;50.826;4.356;2024-01-30T02:18:25;4.65;;;3.58;;
25627;SDS011;40915;50.826;4.356;2024-01-30T02:20:52;7.05;;;3.65;;
25627;SDS011;40915;50.826;4.356;2024-01-30T02:23:19;7.03;;;3.53;;
25627;SDS011;40915;50.826;4.356;2024-01-30T02:25:45;5.38;;;3.50;;
25627;SDS011;40915;50.826;4.356;2024-01-30T02:28:11;9.20;;;3.97;;
25627;SDS011;40915;50.826;4.356;2024-01-30T02:30:38;6.82;;;3.92;;
25627;SDS011;40915;50.826;4.356;2024-01-30T02:33:04;7.93;;;3.85;;
25627;SDS011;40915;50.826;4.356;2024-01-30T02:35:30;5.93;;;3.63;;
25627;SDS011;40915;50.826;4.356;2024-01-30T02:37:56;5.10;;;3.10;;
25627;SDS011;40915;50.826;4.356;2024-01-30T02:40:22;5.95;;;3.45;;
25627;SDS011;40915;50.826;4.356;2024-01-30T02:42:47;6.32;;;4.10;;
25627;SDS011;40915;50.826;4.356;2024-01-30T02:45:13;5.82;;;3.55;;
25627;SDS011;40915;50.826;4.356;2024-01-30T02:47:39;6.32;;;3.20;;
25627;SDS011;40915;50.826;4.356;2024-01-30T02:50:05;6.32;;;3.67;;
25627;SDS011;40915;50.826;4.356;2024-01-30T02:52:31;7.78;;;4.00;;
25627;SDS011;40915;50.826;4.356;2024-01-30T02:54:57;7.43;;;3.58;;
25627;SDS011;40915;50.826;4.356;2024-01-30T02:57:23;6.25;;;3.53;;
25627;SDS011;40915;50.826;4.356;2024-01-30T02:59:48;5.50;;;3.53;;
25627;SDS011;40915;50.826;4.356;2024-01-30T03:02:14;7.18;;;3.40;;
25627;SDS011;40915;50.826;4.356;2024-01-30T03:04:43;6.05;;;3.50;;
25627;SDS011;40915;50.826;4.356;2024-01-30T03:07:08;6.18;;;3.72;;
25627;SDS011;40915;50.826;4.356;2024-01-30T03:09:34;5.47;;;3.47;;
25627;SDS011;40915;50.826;4.356;2024-01-30T03:12:01;7.10;;;3.83;;
25627;SDS011;40915;50.826;4.356;2024-01-30T03:14:30;5.65;;;3.85;;
25627;SDS011;40915;50.826;4.356;2024-01-30T03:16:56;7.13;;;3.72;;
25627;SDS011;40915;50.826;4.356;2024-01-30T03:19:21;5.32;;;3.83;;
25627;SDS011;40915;50.826;4.356;2024-01-30T03:21:47;4.97;;;3.70;;
25627;SDS011;40915;50.826;4.356;2024-01-30T03:24:13;7.03;;;3.80;;
25627;SDS011;40915;50.826;4.356;2024-01-30T03:26:38;7.57;;;3.55;;
25627;SDS011;40915;50.826;4.356;2024-01-30T03:29:04;5.78;;;3.80;;
25627;SDS011;40915;50.826;4.356;2024-01-30T03:31:29;5.85;;;3.60;;
25627;SDS011;40915;50.826;4.356;2024-01-30T03:33:55;7.50;;;3.83;;
25627;SDS011;40915;50.826;4.356;2024-01-30T03:36:20;7.72;;;4.10;;
25627;SDS011;40915;50.826;4.356;2024-01-30T03:38:46;3.60;;;3.20;;
25627;SDS011;40915;50.826;4.356;2024-01-30T03:41:12;6.60;;;3.70;;
25627;SDS011;40915;50.826;4.356;2024-01-30T03:43:37;5.00;;;3.63;;
25627;SDS011;40915;50.826;4.356;2024-01-30T03:46:03;7.05;;;3.70;;
25627;SDS011;40915;50.826;4.356;2024-01-30T03:48:29;6.05;;;3.65;;
25627;SDS011;40915;50.826;4.356;2024-01-30T03:50:55;7.20;;;4.00;;
25627;SDS011;40915;50.826;4.356;2024-01-30T03:53:21;6.10;;;3.63;;
25627;SDS011;40915;50.826;4.356;2024-01-30T03:55:47;7.18;;;3.55;;
25627;SDS011;40915;50.826;4.356;2024-01-30T03:58:12;7.30;;;3.70;;
25627;SDS011;40915;50.826;4.356;2024-01-30T04:00:38;6.78;;;4.10;;
25627;SDS011;40915;50.826;4.356;2024-01-30T04:03:04;5.03;;;3.38;;
25627;SDS011;40915;50.826;4.356;2024-01-30T04:05:30;6.47;;;4.07;;
25627;SDS011;40915;50.826;4.356;2024-01-30T04:07:55;4.82;;;3.60;;
25627;SDS011;40915;50.826;4.356;2024-01-30T04:10:21;7.22;;;3.70;;
25627;SDS011;40915;50.826;4.356;2024-01-30T04:12:47;6.47;;;4.05;;
25627;SDS011;40915;50.826;4.356;2024-01-30T04:15:12;6.32;;;3.80;;
25627;SDS011;40915;50.826;4.356;2024-01-30T04:17:39;6.07;;;4.30;;
25627;SDS011;40915;50.826;4.356;2024-01-30T04:20:05;6.68;;;3.58;;
25627;SDS011;40915;50.826;4.356;2024-01-30T04:22:31;6.03;;;3.92;;
25627;SDS011;40915;50.826;4.356;2024-01-30T04:24:57;6.65;;;4.00;;
25627;SDS011;40915;50.826;4.356;2024-01-30T04:27:23;5.38;;;3.60;;
25627;SDS011;40915;50.826;4.356;2024-01-30T04:29:48;7.15;;;4.53;;
25627;SDS011;40915;50.826;4.356;2024-01-30T04:32:14;7.03;;;4.18;;
25627;SDS011;40915;50.826;4.356;2024-01-30T04:34:40;6.85;;;4.25;;
25627;SDS011;40915;50.826;4.356;2024-01-30T04:37:05;7.30;;;4.13;;
25627;SDS011;40915;50.826;4.356;2024-01-30T04:39:32;7.93;;;3.97;;
25627;SDS011;40915;50.826;4.356;2024-01-30T04:41:58;9.18;;;4.22;;
25627;SDS011;40915;50.826;4.356;2024-01-30T04:44:24;7.40;;;3.78;;
25627;SDS011;40915;50.826;4.356;2024-01-30T04:46:50;7.85;;;4.40;;
25627;SDS011;40915;50.826;4.356;2024-01-30T04:49:15;8.35;;;4.38;;
25627;SDS011;40915;50.826;4.356;2024-01-30T04:51:41;6.68;;;3.83;;
25627;SDS011;40915;50.826;4.356;2024-01-30T04:54:07;8.38;;;4.40;;
25627;SDS011;40915;50.826;4.356;2024-01-30T04:56:33;6.32;;;3.90;;
25627;SDS011;40915;50.826;4.356;2024-01-30T04:59:00;7.10;;;3.78;;
25627;SDS011;40915;50.826;4.356;2024-01-30T05:01:27;7.20;;;4.03;;
25627;SDS011;40915;50.826;4.356;2024-01-30T05:03:53;8.35;;;4.90;;
25627;SDS011;40915;50.826;4.356;2024-01-30T05:06:25;8.45;;;4.22;;
25627;SDS011;40915;50.826;4.356;2024-01-30T05:08:51;5.45;;;3.60;;
25627;SDS011;40915;50.826;4.356;2024-01-30T05:11:17;8.85;;;3.92;;
25627;SDS011;40915;50.826;4.356;2024-01-30T05:13:42;5.97;;;4.15;;
25627;SDS011;40915;50.826;4.356;2024-01-30T05:16:08;6.72;;;4.53;;
25627;SDS011;40915;50.826;4.356;2024-01-30T05:18:33;6.55;;;4.10;;
25627;SDS011;40915;50.826;4.356;2024-01-30T05:20:59;7.00;;;4.05;;
25627;SDS011;40915;50.826;4.356;2024-01-30T05:23:24;9.05;;;4.00;;
25627;SDS011;40915;50.826;4.356;2024-01-30T05:25:50;6.88;;;3.80;;
25627;SDS011;40915;50.826;4.356;2024-01-30T05:28:16;9.18;;;4.50;;
25627;SDS011;40915;50.826;4.356;2024-01-30T05:30:42;6.22;;;4.07;;
25627;SDS011;40915;50.826;4.356;2024-01-30T05:33:07;7.75;;;4.18;;
25627;SDS011;40915;50.826;4.356;2024-01-30T05:35:33;5.63;;;4.03;;
25627;SDS011;40915;50.826;4.356;2024-01-30T05:37:59;6.07;;;4.10;;
25627;SDS011;40915;50.826;4.356;2024-01-30T05:40:24;6.88;;;4.22;;
25627;SDS011;40915;50.826;4.356;2024-01-30T05:42:50;6.57;;;4.45;;
25627;SDS011;40915;50.826;4.356;2024-01-30T05:45:15;9.82;;;4.43;;
25627;SDS011;40915;50.826;4.356;2024-01-30T05:47:41;8.52;;;4.40;;
25627;SDS011;40915;50.826;4.356;2024-01-30T05:50:07;7.78;;;4.65;;
25627;SDS011;40915;50.826;4.356;2024-01-30T05:52:32;10.00;;;4.60;;
25627;SDS011;40915;50.826;4.356;2024-01-30T05:54:58;7.05;;;4.10;;
25627;SDS011;40915;50.826;4.356;2024-01-30T05:57:24;7.57;;;4.30;;
25627;SDS011;40915;50.826;4.356;2024-01-30T05:59:50;7.75;;;4.50;;
25627;SDS011;40915;50.826;4.356;2024-01-30T06:02:17;9.50;;;4.63;;
25627;SDS011;40915;50.826;4.356;2024-01-30T06:04:42;8.73;;;4.93;;
25627;SDS011;40915;50.826;4.356;2024-01-30T06:07:09;5.32;;;4.25;;
25627;SDS011;40915;50.826;4.356;2024-01-30T06:09:35;6.15;;;4.32;;
25627;SDS011;40915;50.826;4.356;2024-01-30T06:12:00;7.93;;;4.28;;
25627;SDS011;40915;50.826;4.356;2024-01-30T06:14:26;8.27;;;4.70;;
25627;SDS011;40915;50.826;4.356;2024-01-30T06:16:51;10.85;;;4.70;;
25627;SDS011;40915;50.826;4.356;2024-01-30T06:19:17;7.78;;;4.38;;
25627;SDS011;40915;50.826;4.356;2024-01-30T06:21:43;7.60;;;4.35;;
25627;SDS011;40915;50.826;4.356;2024-01-30T06:24:10;8.20;;;4.70;;
25627;SDS011;40915;50.826;4.356;2024-01-30T06:26:35;6.72;;;5.07;;
25627;SDS011;40915;50.826;4.356;2024-01-30T06:29:01;7.88;;;5.20;;
25627;SDS011;40915;50.826;4.356;2024-01-30T06:31:27;7.55;;;4.53;;
25627;SDS011;40915;50.826;4.356;2024-01-30T06:33:52;8.18;;;5.10;;
25627;SDS011;40915;50.826;4.356;2024-01-30T06:36:18;9.75;;;4.80;;
25627;SDS011;40915;50.826;4.356;2024-01-30T06:38:44;13.07;;;5.38;;
25627;SDS011;40915;50.826;4.356;2024-01-30T06:41:09;7.35;;;4.20;;
25627;SDS011;40915;50.826;4.356;2024-01-30T06:43:35;8.48;;;5.10;;
25627;SDS011;40915;50.826;4.356;2024-01-30T06:46:01;6.85;;;4.78;;
25627;SDS011;40915;50.826;4.356;2024-01-30T06:48:26;8.93;;;5.50;;
25627;SDS011;40915;50.826;4.356;2024-01-30T06:50:57;9.38;;;4.97;;
25627;SDS011;40915;50.826;4.356;2024-01-30T06:53:23;8.20;;;4.40;;
25627;SDS011;40915;50.826;4.356;2024-01-30T06:55:49;10.13;;;5.22;;
25627;SDS011;40915;50.826;4.356;2024-01-30T06:58:15;7.53;;;4.72;;
25627;SDS011;40915;50.826;4.356;2024-01-30T07:00:40;8.65;;;5.30;;
25627;SDS011;40915;50.826;4.356;2024-01-30T07:03:06;8.52;;;5.18;;
25627;SDS011;40915;50.826;4.356;2024-01-30T07:05:32;9.68;;;4.60;;
25627;SDS011;40915;50.826;4.356;2024-01-30T07:07:58;10.57;;;4.88;;
25627;SDS011;40915;50.826;4.356;2024-01-30T07:10:23;9.65;;;5.18;;
25627;SDS011;40915;50.826;4.356;2024-01-30T07:12:49;7.55;;;5.07;;
25627;SDS011;40915;50.826;4.356;2024-01-30T07:15:14;11.85;;;5.78;;
25627;SDS011;40915;50.826;4.356;2024-01-30T07:17:44;8.30;;;5.18;;
25627;SDS011;40915;50.826;4.356;2024-01-30T07:20:10;11.57;;;5.63;;
25627;SDS011;40915;50.826;4.356;2024-01-30T07:22:36;6.78;;;4.90;;
25627;SDS011;40915;50.826;4.356;2024-01-30T07:25:02;6.28;;;4.88;;
25627;SDS011;40915;50.826;4.356;2024-01-30T07:27:28;8.32;;;5.30;;
25627;SDS011;40915;50.826;4.356;2024-01-30T07:29:53;10.63;;;5.00;;
25627;SDS011;40915;50.826;4.356;2024-01-30T07:32:19;8.88;;;4.93;;
25627;SDS011;40915;50.826;4.356;2024-01-30T07:34:44;9.95;;;5.57;;
25627;SDS011;40915;50.826;4.356;2024-01-30T07:37:10;8.93;;;5.28;;
25627;SDS011;40915;50.826;4.356;2024-01-30T07:39:38;18.05;;;6.07;;
25627;SDS011;40915;50.826;4.356;2024-01-30T07:42:03;9.38;;;4.78;;
25627;SDS011;40915;50.826;4.356;2024-01-30T07:44:29;13.40;;;5.80;;
25627;SDS011;40915;50.826;4.356;2024-01-30T07:46:55;11.00;;;5.00;;
25627;SDS011;40915;50.826;4.356;2024-01-30T07:49:20;11.15;;;5.93;;
25627;SDS011;40915;50.826;4.356;2024-01-30T07:51:46;13.48;;;6.10;;
25627;SDS011;40915;50.826;4.356;2024-01-30T07:54:12;12.18;;;6.55;;
25627;SDS011;40915;50.826;4.356;2024-01-30T07:56:40;13.25;;;5.68;;
25627;SDS011;40915;50.826;4.356;2024-01-30T07:59:09;11.55;;;6.10;;
25627;SDS011;40915;50.826;4.356;2024-01-30T08:01:35;14.75;;;6.57;;
25627;SDS011;40915;50.826;4.356;2024-01-30T08:04:01;16.45;;;6.53;;
25627;SDS011;40915;50.826;4.356;2024-01-30T08:06:26;14.93;;;6.80;;
25627;SDS011;40915;50.826;4.356;2024-01-30T08:08:52;12.30;;;6.20;;
25627;SDS011;40915;50.826;4.356;2024-01-30T08:11:20;11.57;;;5.95;;
25627;SDS011;40915;50.826;4.356;2024-01-30T08:13:50;11.18;;;6.07;;
25627;SDS011;40915;50.826;4.356;2024-01-30T08:16:16;17.23;;;6.40;;
25627;SDS011;40915;50.826;4.356;2024-01-30T08:18:42;13.60;;;6.73;;
25627;SDS011;40915;50.826;4.356;2024-01-30T08:21:07;17.95;;;6.55;;
25627;SDS011;40915;50.826;4.356;2024-01-30T08:23:34;15.18;;;7.05;;
25627;SDS011;40915;50.826;4.356;2024-01-30T08:25:59;11.60;;;6.22;;
25627;SDS011;40915;50.826;4.356;2024-01-30T08:28:25;13.00;;;6.20;;
25627;SDS011;40915;50.826;4.356;2024-01-30T08:30:51;9.52;;;5.60;;
25627;SDS011;40915;50.826;4.356;2024-01-30T08:33:17;12.60;;;5.95;;
25627;SDS011;40915;50.826;4.356;2024-01-30T08:35:42;12.77;;;5.90;;
25627;SDS011;40915;50.826;4.356;2024-01-30T08:38:08;9.38;;;5.47;;
25627;SDS011;40915;50.826;4.356;2024-01-30T08:40:33;11.10;;;6.60;;
25627;SDS011;40915;50.826;4.356;2024-01-30T08:42:59;15.52;;;6.68;;
25627;SDS011;40915;50.826;4.356;2024-01-30T08:45:25;14.15;;;6.15;;
25627;SDS011;40915;50.826;4.356;2024-01-30T08:47:51;12.98;;;6.60;;
25627;SDS011;40915;50.826;4.356;2024-01-30T08:50:17;14.25;;;6.40;;
25627;SDS011;40915;50.826;4.356;2024-01-30T08:52:43;11.93;;;6.88;;
25627;SDS011;40915;50.826;4.356;2024-01-30T08:55:08;12.13;;;6.38;;
25627;SDS011;40915;50.826;4.356;2024-01-30T08:57:34;20.35;;;6.18;;
25627;SDS011;40915;50.826;4.356;2024-01-30T09:00:00;14.07;;;6.07;;
25627;SDS011;40915;50.826;4.356;2024-01-30T09:02:29;11.07;;;6.10;;
25627;SDS011;40915;50.826;4.356;2024-01-30T09:04:54;9.73;;;5.85;;
25627;SDS011;40915;50.826;4.356;2024-01-30T09:07:20;11.30;;;5.40;;
25627;SDS011;40915;50.826;4.356;2024-01-30T09:09:46;12.73;;;5.80;;
25627;SDS011;40915;50.826;4.356;2024-01-30T09:12:11;10.32;;;5.60;;
25627;SDS011;40915;50.826;4.356;2024-01-30T09:14:39;12.90;;;6.10;;
25627;SDS011;40915;50.826;4.356;2024-01-30T09:17:08;13.95;;;7.30;;
25627;SDS011;40915;50.826;4.356;2024-01-30T09:19:34;15.65;;;6.57;;
25627;SDS011;40915;50.826;4.356;2024-01-30T09:21:59;11.30;;;6.32;;
25627;SDS011;40915;50.826;4.356;2024-01-30T09:24:25;12.45;;;6.30;;
25627;SDS011;40915;50.826;4.356;2024-01-30T09:26:51;17.10;;;6.38;;
25627;SDS011;40915;50.826;4.356;2024-01-30T09:29:17;13.40;;;6.75;;
25627;SDS011;40915;50.826;4.356;2024-01-30T09:31:43;12.65;;;6.05;;
25627;SDS011;40915;50.826;4.356;2024-01-30T09:34:10;12.15;;;6.30;;
25627;SDS011;40915;50.826;4.356;2024-01-30T09:36:35;12.60;;;7.05;;
25627;SDS011;40915;50.826;4.356;2024-01-30T09:39:01;11.93;;;6.88;;
25627;SDS011;40915;50.826;4.356;2024-01-30T09:41:27;13.98;;;6.97;;
25627;SDS011;40915;50.826;4.356;2024-01-30T09:43:54;17.92;;;7.40;;
25627;SDS011;40915;50.826;4.356;2024-01-30T09:46:22;14.63;;;7.00;;
25627;SDS011;40915;50.826;4.356;2024-01-30T09:48:52;15.10;;;6.70;;
25627;SDS011;40915;50.826;4.356;2024-01-30T09:51:20;16.10;;;7.28;;
25627;SDS011;40915;50.826;4.356;2024-01-30T09:53:47;14.93;;;7.85;;
25627;SDS011;40915;50.826;4.356;2024-01-30T09:56:13;11.85;;;7.30;;
25627;SDS011;40915;50.826;4.356;2024-01-30T09:58:39;14.50;;;7.95;;
25627;SDS011;40915;50.826;4.356;2024-01-30T10:01:05;17.65;;;7.80;;
25627;SDS011;40915;50.826;4.356;2024-01-30T10:03:31;18.85;;;7.90;;
25627;SDS011;40915;50.826;4.356;2024-01-30T10:05:57;18.30;;;8.43;;
25627;SDS011;40915;50.826;4.356;2024-01-30T10:08:25;13.32;;;7.00;;
25627;SDS011;40915;50.826;4.356;2024-01-30T10:10:51;17.00;;;8.00;;
25627;SDS011;40915;50.826;4.356;2024-01-30T10:13:17;14.00;;;7.38;;
25627;SDS011;40915;50.826;4.356;2024-01-30T10:15:43;14.50;;;6.97;;
25627;SDS011;40915;50.826;4.356;2024-01-30T10:18:10;16.27;;;7.80;;
25627;SDS011;40915;50.826;4.356;2024-01-30T10:20:36;17.25;;;8.82;;
25627;SDS011;40915;50.826;4.356;2024-01-30T10:23:02;11.95;;;7.72;;
25627;SDS011;40915;50.826;4.356;2024-01-30T10:25:29;14.35;;;7.88;;
25627;SDS011;40915;50.826;4.356;2024-01-30T10:27:56;15.57;;;7.70;;
25627;SDS011;40915;50.826;4.356;2024-01-30T10:30:23;14.50;;;7.75;;
25627;SDS011;40915;50.826;4.356;2024-01-30T10:32:49;12.38;;;8.07;;
25627;SDS011;40915;50.826;4.356;2024-01-30T10:35:15;18.58;;;7.72;;
25627;SDS011;40915;50.826;4.356;2024-01-30T10:37:44;14.90;;;7.07;;
25627;SDS011;40915;50.826;4.356;2024-01-30T10:40:13;14.30;;;7.05;;
25627;SDS011;40915;50.826;4.356;2024-01-30T10:42:42;12.38;;;6.93;;
25627;SDS011;40915;50.826;4.356;2024-01-30T10:45:10;17.25;;;7.13;;
25627;SDS011;40915;50.826;4.356;2024-01-30T10:47:44;9.23;;;6.10;;
25627;SDS011;40915;50.826;4.356;2024-01-30T10:50:15;11.50;;;6.93;;
25627;SDS011;40915;50.826;4.356;2024-01-30T10:52:41;9.82;;;6.28;;
25627;SDS011;40915;50.826;4.356;2024-01-30T10:55:08;14.15;;;5.35;;
25627;SDS011;40915;50.826;4.356;2024-01-30T10:57:35;10.75;;;5.05;;
25627;SDS011;40915;50.826;4.356;2024-01-30T11:00:02;14.00;;;5.82;;
25627;SDS011;40915;50.826;4.356;2024-01-30T11:02:30;13.63;;;5.28;;
25627;SDS011;40915;50.826;4.356;2024-01-30T11:04:57;10.55;;;4.95;;
25627;SDS011;40915;50.826;4.356;2024-01-30T11:07:28;12.82;;;5.20;;
25627;SDS011;40915;50.826;4.356;2024-01-30T11:12:26;9.65;;;4.40;;
25627;SDS011;40915;50.826;4.356;2024-01-30T11:15:09;9.65;;;5.05;;
25627;SDS011;40915;50.826;4.356;2024-01-30T11:20:19;12.02;;;5.53;;
25627;SDS011;40915;50.826;4.356;2024-01-30T11:22:46;13.20;;;4.40;;
25627;SDS011;40915;50.826;4.356;2024-01-30T11:25:16;6.80;;;2.97;;
25627;SDS011;40915;50.826;4.356;2024-01-30T11:27:43;7.22;;;2.40;;
25627;SDS011;40915;50.826;4.356;2024-01-30T11:30:10;5.43;;;2.38;;
25627;SDS011;40915;50.826;4.356;2024-01-30T11:32:36;3.83;;;1.80;;
25627;SDS011;40915;50.826;4.356;2024-01-30T11:35:03;7.10;;;1.80;;
25627;SDS011;40915;50.826;4.356;2024-01-30T11:37:31;5.50;;;1.40;;
25627;SDS011;40915;50.826;4.356;2024-01-30T11:39:57;3.78;;;1.50;;
25627;SDS011;40915;50.826;4.356;2024-01-30T11:42:24;7.63;;;1.60;;
25627;SDS011;40915;50.826;4.356;2024-01-30T11:44:50;4.57;;;1.40;;
25627;SDS011;40915;50.826;4.356;2024-01-30T11:47:16;7.22;;;2.13;;
25627;SDS011;40915;50.826;4.356;2024-01-30T11:49:42;11.18;;;1.55;;
25627;SDS011;40915;50.826;4.356;2024-01-30T11:52:09;2.53;;;1.50;;
25627;SDS011;40915;50.826;4.356;2024-01-30T11:54:34;4.10;;;1.70;;
25627;SDS011;40915;50.826;4.356;2024-01-30T11:57:01;2.83;;;1.15;;
25627;SDS011;40915;50.826;4.356;2024-01-30T11:59:26;5.63;;;1.35;;
25627;SDS011;40915;50.826;4.356;2024-01-30T12:01:52;7.35;;;1.30;;
25627;SDS011;40915;50.826;4.356;2024-01-30T12:04:18;1.77;;;0.77;;
25627;SDS011;40915;50.826;4.356;2024-01-30T12:06:43;5.15;;;0.90;;
25627;SDS011;40915;50.826;4.356;2024-01-30T12:09:09;3.78;;;0.85;;
25627;SDS011;40915;50.826;4.356;2024-01-30T12:11:44;4.97;;;0.90;;
25627;SDS011;40915;50.826;4.356;2024-01-30T12:14:13;4.65;;;1.23;;
25627;SDS011;40915;50.826;4.356;2024-01-30T12:16:39;3.67;;;0.70;;
25627;SDS011;40915;50.826;4.356;2024-01-30T12:19:05;1.65;;;0.70;;
25627;SDS011;40915;50.826;4.356;2024-01-30T12:21:30;3.08;;;0.70;;
25627;SDS011;40915;50.826;4.356;2024-01-30T12:23:56;2.05;;;0.60;;
25627;SDS011;40915;50.826;4.356;2024-01-30T12:26:23;3.92;;;0.90;;
25627;SDS011;40915;50.826;4.356;2024-01-30T12:28:55;3.05;;;0.90;;
25627;SDS011;40915;50.826;4.356;2024-01-30T12:31:26;4.35;;;0.68;;
25627;SDS011;40915;50.826;4.356;2024-01-30T12:33:58;4.68;;;1.02;;
25627;SDS011;40915;50.826;4.356;2024-01-30T12:36:25;2.00;;;0.93;;
25627;SDS011;40915;50.826;4.356;2024-01-30T12:38:51;4.28;;;0.90;;
25627;SDS011;40915;50.826;4.356;2024-01-30T12:41:16;3.53;;;0.70;;
25627;SDS011;40915;50.826;4.356;2024-01-30T12:43:42;2.97;;;0.85;;
25627;SDS011;40915;50.826;4.356;2024-01-30T12:46:09;2.25;;;0.80;;
25627;SDS011;40915;50.826;4.356;2024-01-30T12:48:34;4.97;;;0.90;;
25627;SDS011;40915;50.826;4.356;2024-01-30T12:51:00;4.40;;;1.00;;
25627;SDS011;40915;50.826;4.356;2024-01-30T12:53:26;4.35;;;0.80;;
25627;SDS011;40915;50.826;4.356;2024-01-30T12:55:52;2.78;;;0.80;;
25627;SDS011;40915;50.826;4.356;2024-01-30T12:58:21;3.58;;;1.08;;
25627;SDS011;40915;50.826;4.356;2024-01-30T13:00:47;4.05;;;0.90;;
25627;SDS011;40915;50.826;4.356;2024-01-30T13:03:12;6.15;;;0.90;;
25627;SDS011;40915;50.826;4.356;2024-01-30T13:05:38;3.88;;;1.15;;
25627;SDS011;40915;50.826;4.356;2024-01-30T13:08:04;3.85;;;1.00;;
25627;SDS011;40915;50.826;4.356;2024-01-30T13:10:30;4.65;;;0.90;;
25627;SDS011;40915;50.826;4.356;2024-01-30T13:12:55;6.28;;;1.05;;
25627;SDS011;40915;50.826;4.356;2024-01-30T13:15:21;4.55;;;0.95;;
25627;SDS011;40915;50.826;4.356;2024-01-30T13:17:48;5.88;;;0.95;;
25627;SDS011;40915;50.826;4.356;2024-01-30T13:20:14;3.75;;;1.15;;
25627;SDS011;40915;50.826;4.356;2024-01-30T13:22:44;3.67;;;0.70;;
25627;SDS011;40915;50.826;4.356;2024-01-30T13:25:10;3.15;;;1.00;;
25627;SDS011;40915;50.826;4.356;2024-01-30T13:27:36;5.43;;;1.40;;
25627;SDS011;40915;50.826;4.356;2024-01-30T13:30:02;6.32;;;1.02;;
25627;SDS011;40915;50.826;4.356;2024-01-30T13:32:29;7.07;;;1.83;;
25627;SDS011;40915;50.826;4.356;2024-01-30T13:34:55;4.20;;;1.40;;
25627;SDS011;40915;50.826;4.356;2024-01-30T13:37:21;5.28;;;1.20;;
25627;SDS011;40915;50.826;4.356;2024-01-30T13:39:47;10.73;;;1.70;;
25627;SDS011;40915;50.826;4.356;2024-01-30T13:42:13;4.97;;;1.10;;
25627;SDS011;40915;50.826;4.356;2024-01-30T13:44:38;5.47;;;1.00;;
25627;SDS011;40915;50.826;4.356;2024-01-30T13:47:04;69.65;;;6.80;;
25627;SDS011;40915;50.826;4.356;2024-01-30T13:49:30;9.95;;;1.42;;
25627;SDS011;40915;50.826;4.356;2024-01-30T13:51:56;5.97;;;1.00;;
25627;SDS011;40915;50.826;4.356;2024-01-30T13:54:23;7.07;;;1.40;;
25627;SDS011;40915;50.826;4.356;2024-01-30T13:56:52;6.15;;;1.45;;
25627;SDS011;40915;50.826;4.356;2024-01-30T13:59:17;4.68;;;1.08;;
25627;SDS011;40915;50.826;4.356;2024-01-30T14:01:48;4.70;;;1.15;;
25627;SDS011;40915;50.826;4.356;2024-01-30T14:04:14;6.63;;;1.48;;
25627;SDS011;40915;50.826;4.356;2024-01-30T14:06:40;7.20;;;1.10;;
25627;SDS011;40915;50.826;4.356;2024-01-30T14:09:07;5.35;;;0.90;;
25627;SDS011;40915;50.826;4.356;2024-01-30T14:11:33;5.22;;;0.95;;
25627;SDS011;40915;50.826;4.356;2024-01-30T14:13:59;3.38;;;0.90;;
25627;SDS011;40915;50.826;4.356;2024-01-30T14:16:24;7.45;;;1.20;;
25627;SDS011;40915;50.826;4.356;2024-01-30T14:18:50;8.45;;;1.63;;
25627;SDS011;40915;50.826;4.356;2024-01-30T14:21:15;4.65;;;1.30;;
25627;SDS011;40915;50.826;4.356;2024-01-30T14:23:41;5.18;;;1.35;;
25627;SDS011;40915;50.826;4.356;2024-01-30T14:26:07;3.92;;;0.80;;
25627;SDS011;40915;50.826;4.356;2024-01-30T14:28:32;4.45;;;0.93;;
25627;SDS011;40915;50.826;4.356;2024-01-30T14:30:58;5.05;;;1.05;;
25627;SDS011;40915;50.826;4.356;2024-01-30T14:33:24;9.00;;;1.20;;
25627;SDS011;40915;50.826;4.356;2024-01-30T14:35:50;7.03;;;1.25;;
25627;SDS011;40915;50.826;4.356;2024-01-30T14:38:16;6.05;;;1.30;;
25627;SDS011;40915;50.826;4.356;2024-01-30T14:40:42;8.38;;;1.30;;
25627;SDS011;40915;50.826;4.356;2024-01-30T14:43:08;9.88;;;2.42;;